Time;durP1;ratioP1;P1;durP2;ratioP2;P2;SDS_P1;SDS_P2;PMS_P1;PMS_P2;Temp;Humidity;BMP_temperature;BMP_pressure;BME280_temperature;BME280_humidity;BME280_pressure;Samples;Min_cycle;Max_cycle;Signal;HPM_P1;HPM_P2
2023/06/05 05:04:01;;;;;;;12.63;4.50;;;14.70;81.50;;;;;;4857785;29;20141;-73
2023/06/05 05:06:27;;;;;;;9.85;3.90;;;14.80;81.20;;;;;;4843381;29;20070;-72
2023/06/05 05:08:53;;;;;;;9.35;4.35;;;14.90;79.90;;;;;;4867024;29;20311;-73
2023/06/05 05:11:20;;;;;;;10.48;4.20;;;15.10;80.20;;;;;;4838581;29;20029;-73
2023/06/05 05:13:46;;;;;;;12.80;4.70;;;15.20;79.20;;;;;;4851491;29;20029;-71
2023/06/05 05:16:13;;;;;;;11.50;4.32;;;15.30;79.80;;;;;;4850869;29;20054;-72
2023/06/05 05:18:41;;;;;;;7.53;2.80;;;15.40;79.30;;;;;;4851378;29;20029;-72
2023/06/05 05:21:07;;;;;;;8.10;3.70;;;15.50;76.30;;;;;;4851227;29;20041;-73
2023/06/05 05:23:33;;;;;;;9.70;3.80;;;15.60;76.30;;;;;;4851254;29;20058;-74
2023/06/05 05:26:01;;;;;;;21.63;5.97;;;15.70;77.70;;;;;;4851384;29;20034;-73
2023/06/05 05:28:27;;;;;;;18.67;4.88;;;15.80;78.20;;;;;;4850361;29;20097;-72
2023/06/05 05:30:56;;;;;;;37.00;7.57;;;15.80;77.50;;;;;;4852247;29;20041;-75
2023/06/05 05:33:22;;;;;;;8.20;3.83;;;15.90;77.60;;;;;;4850538;29;20030;-75
2023/06/05 05:35:48;;;;;;;8.82;3.70;;;15.90;77.40;;;;;;4851157;29;20046;-74
2023/06/05 05:38:16;;;;;;;82.50;14.35;;;15.90;77.80;;;;;;4850514;29;20034;-74
2023/06/05 05:40:41;;;;;;;79.97;13.70;;;16.00;77.80;;;;;;4851187;29;20100;-75
2023/06/05 05:43:08;;;;;;;25.30;5.85;;;16.00;77.90;;;;;;4852235;29;20042;-74
2023/06/05 05:45:33;;;;;;;8.32;3.55;;;16.10;77.00;;;;;;4850328;29;20371;-74
2023/06/05 05:47:59;;;;;;;6.78;3.25;;;16.20;76.30;;;;;;4852120;29;20089;-74
2023/06/05 05:50:25;;;;;;;20.15;3.90;;;16.30;75.50;;;;;;4850483;29;20105;-75
2023/06/05 05:52:53;;;;;;;8.85;2.80;;;16.40;75.20;;;;;;4852187;29;20038;-75
2023/06/05 05:55:18;;;;;;;397.98;52.95;;;16.50;74.90;;;;;;4851513;29;20041;-73
2023/06/05 05:57:44;;;;;;;43.95;7.82;;;16.70;75.20;;;;;;4851782;29;20038;-75
2023/06/05 06:00:12;;;;;;;15.07;3.75;;;16.80;74.20;;;;;;4851585;29;20034;-75
2023/06/05 06:02:41;;;;;;;8.70;2.90;;;16.80;73.50;;;;;;4843344;29;20117;-74
2023/06/05 06:05:08;;;;;;;5.05;2.30;;;16.90;73.40;;;;;;4832840;29;20496;-74
2023/06/05 06:07:36;;;;;;;148.85;18.92;;;17.00;73.30;;;;;;4833979;29;20041;-73
2023/06/05 06:10:02;;;;;;;74.90;11.35;;;17.10;72.90;;;;;;4835489;29;20047;-75
2023/06/05 06:12:28;;;;;;;12.35;3.70;;;17.20;72.50;;;;;;4832224;29;20039;-73
2023/06/05 06:14:55;;;;;;;7.55;2.47;;;17.30;71.90;;;;;;4833857;29;20087;-74
2023/06/05 06:17:21;;;;;;;6.65;2.42;;;17.30;72.40;;;;;;4833045;29;20031;-75
2023/06/05 06:19:48;;;;;;;6.13;2.30;;;17.40;72.10;;;;;;4833939;29;20043;-75
2023/06/05 06:22:15;;;;;;;14.45;3.00;;;17.40;70.40;;;;;;4833602;29;20048;-74
2023/06/05 06:24:43;;;;;;;7.53;3.15;;;17.50;71.00;;;;;;4832704;29;20324;-73
2023/06/05 06:27:10;;;;;;;7.47;2.47;;;17.60;70.90;;;;;;4833675;29;20034;-75
2023/06/05 06:29:46;;;;;;;5.75;2.88;;;17.70;69.70;;;;;;4832955;29;20097;-74
2023/06/05 06:32:12;;;;;;;4.15;2.00;;;17.80;69.40;;;;;;4833536;29;20053;-75
2023/06/05 06:34:37;;;;;;;5.53;2.17;;;17.80;70.00;;;;;;4833315;29;20373;-75
2023/06/05 06:37:03;;;;;;;10.00;2.53;;;18.00;69.90;;;;;;4843343;29;20062;-73
2023/06/05 06:39:29;;;;;;;5.85;2.30;;;18.00;69.00;;;;;;4849935;29;20046;-74
2023/06/05 06:41:57;;;;;;;7.68;2.63;;;18.10;67.90;;;;;;4851415;29;20239;-75
2023/06/05 06:44:23;;;;;;;10.40;2.60;;;18.30;68.10;;;;;;4850761;29;20052;-73
2023/06/05 06:46:48;;;;;;;6.07;2.67;;;18.40;68.30;;;;;;4835192;29;20328;-73
2023/06/05 06:49:14;;;;;;;6.95;2.67;;;18.50;66.80;;;;;;4850856;29;20033;-75
2023/06/05 06:51:40;;;;;;;9.20;2.20;;;18.50;66.30;;;;;;4851035;29;20033;-74
2023/06/05 06:54:06;;;;;;;12.77;2.38;;;18.70;66.10;;;;;;4851476;29;20030;-73
2023/06/05 06:56:31;;;;;;;8.90;2.72;;;18.80;66.20;;;;;;4853089;29;20036;-74
2023/06/05 06:58:57;;;;;;;7.95;2.60;;;18.90;66.10;;;;;;4854912;29;20030;-74
2023/06/05 07:01:24;;;;;;;5.78;2.28;;;19.00;66.10;;;;;;4819769;29;20062;-73
2023/06/05 07:03:50;;;;;;;6.00;2.78;;;19.10;65.90;;;;;;4845645;29;20054;-74
2023/06/05 07:06:16;;;;;;;6.30;2.40;;;19.20;65.70;;;;;;4835905;29;20270;-73
2023/06/05 07:08:42;;;;;;;8.43;3.13;;;19.40;65.70;;;;;;4835948;29;20319;-74
2023/06/05 07:11:07;;;;;;;5.15;1.90;;;19.40;65.20;;;;;;4835935;29;20327;-74
2023/06/05 07:13:33;;;;;;;6.40;2.30;;;19.50;65.20;;;;;;4835293;29;20090;-73
2023/06/05 07:15:59;;;;;;;5.25;2.28;;;19.50;65.10;;;;;;4835860;29;20042;-73
2023/06/05 07:18:24;;;;;;;7.43;2.25;;;19.50;64.70;;;;;;4835461;29;20049;-74
2023/06/05 07:20:50;;;;;;;4.55;2.33;;;19.60;65.50;;;;;;4835762;29;20042;-75
2023/06/05 07:23:18;;;;;;;4.93;2.45;;;19.70;65.50;;;;;;4835827;29;20098;-74
2023/06/05 07:25:45;;;;;;;5.13;2.58;;;19.80;64.70;;;;;;4835930;29;20111;-74
2023/06/05 07:28:15;;;;;;;6.30;2.83;;;19.90;65.20;;;;;;4835911;29;20033;-76
2023/06/05 07:30:44;;;;;;;5.35;2.47;;;20.10;64.90;;;;;;4835579;29;20042;-74
2023/06/05 07:33:10;;;;;;;5.88;2.78;;;20.00;64.50;;;;;;4835985;29;20068;-76
2023/06/05 07:35:36;;;;;;;7.05;2.63;;;20.10;65.20;;;;;;4835438;29;20050;-74
2023/06/05 07:38:02;;;;;;;7.32;2.42;;;20.30;65.00;;;;;;4834774;29;20042;-74
2023/06/05 07:40:28;;;;;;;7.53;2.65;;;20.50;65.30;;;;;;4833920;29;20340;-75
2023/06/05 07:42:53;;;;;;;7.50;3.35;;;20.60;65.50;;;;;;4835641;29;20038;-75
2023/06/05 07:45:19;;;;;;;11.27;3.30;;;20.70;65.40;;;;;;4835210;29;20034;-74
2023/06/05 07:47:45;;;;;;;13.07;2.97;;;20.80;65.50;;;;;;4835656;29;20093;-74
2023/06/05 07:50:10;;;;;;;7.07;2.63;;;20.80;64.60;;;;;;4834292;29;20083;-74
2023/06/05 07:52:37;;;;;;;7.55;2.95;;;20.90;64.90;;;;;;4834796;29;20247;-74
2023/06/05 07:55:04;;;;;;;6.88;3.00;;;21.00;65.00;;;;;;4835271;29;20113;-75
2023/06/05 07:57:29;;;;;;;9.55;3.47;;;21.10;65.50;;;;;;4835079;29;20035;-74
2023/06/05 07:59:55;;;;;;;4.30;2.70;;;21.20;64.90;;;;;;4835418;29;20063;-75
2023/06/05 08:02:23;;;;;;;5.60;2.85;;;21.20;65.10;;;;;;4834443;29;20053;-72
2023/06/05 08:04:48;;;;;;;8.00;3.37;;;21.20;65.20;;;;;;4833919;29;20118;-73
2023/06/05 08:07:14;;;;;;;5.88;3.08;;;21.40;65.90;;;;;;4835234;29;20035;-72
2023/06/05 08:09:40;;;;;;;4.85;2.92;;;21.50;66.00;;;;;;4834804;29;20050;-74
2023/06/05 08:12:06;;;;;;;5.47;2.90;;;21.70;65.20;;;;;;4834974;29;20037;-74
2023/06/05 08:14:34;;;;;;;5.00;3.05;;;21.80;64.90;;;;;;4836359;29;20038;-73
2023/06/05 08:16:59;;;;;;;6.32;3.15;;;21.80;65.00;;;;;;4842671;29;20038;-72
2023/06/05 08:19:25;;;;;;;7.03;2.97;;;21.80;64.90;;;;;;4846138;29;20054;-71
2023/06/05 08:21:53;;;;;;;6.45;2.97;;;21.80;64.70;;;;;;4843660;29;20038;-73
2023/06/05 08:24:20;;;;;;;7.53;2.97;;;21.90;65.10;;;;;;4834608;29;20256;-76
2023/06/05 08:26:46;;;;;;;5.03;2.90;;;22.00;64.90;;;;;;4834877;29;20031;-73
2023/06/05 08:29:12;;;;;;;8.57;3.42;;;22.10;65.60;;;;;;4835390;29;20102;-74
2023/06/05 08:31:38;;;;;;;6.20;3.58;;;22.30;65.40;;;;;;4834413;29;20034;-75
2023/06/05 08:34:07;;;;;;;4.60;2.83;;;22.40;65.60;;;;;;4834851;29;20042;-75
2023/06/05 08:36:32;;;;;;;6.60;3.58;;;22.50;66.40;;;;;;4834177;29;20255;-74
2023/06/05 08:38:59;;;;;;;6.28;3.55;;;22.60;65.70;;;;;;4834819;29;20082;-76
2023/06/05 08:41:25;;;;;;;7.30;3.55;;;22.70;65.80;;;;;;4834313;29;20083;-72
2023/06/05 08:43:51;;;;;;;5.55;3.25;;;22.80;65.80;;;;;;4833450;29;20032;-73
2023/06/05 08:46:17;;;;;;;6.85;3.10;;;22.70;64.70;;;;;;4834482;29;20034;-72
2023/06/05 08:48:44;;;;;;;7.38;3.40;;;22.60;65.20;;;;;;4833942;29;20219;-74
2023/06/05 08:51:12;;;;;;;7.47;3.42;;;22.70;65.10;;;;;;4818395;29;20041;-72
2023/06/05 08:53:40;;;;;;;6.97;3.00;;;22.70;64.40;;;;;;4833796;29;20038;-72
2023/06/05 08:56:07;;;;;;;10.30;3.55;;;22.90;64.40;;;;;;4834297;29;20042;-73
2023/06/05 08:58:35;;;;;;;6.50;2.88;;;22.90;64.70;;;;;;4833750;29;20033;-73
2023/06/05 09:01:01;;;;;;;6.00;3.17;;;22.90;64.60;;;;;;4834482;29;20053;-74
2023/06/05 09:03:26;;;;;;;8.32;3.25;;;23.00;64.60;;;;;;4834027;29;20050;-74
2023/06/05 09:05:53;;;;;;;5.57;3.05;;;23.00;65.40;;;;;;4833298;29;20026;-76
2023/06/05 09:08:32;;;;;;;6.13;3.15;;;23.30;65.80;;;;;;4833321;29;20312;-73
2023/06/05 09:11:25;;;;;;;6.25;2.92;;;23.40;65.20;;;;;;4834470;29;20034;-72
2023/06/05 09:13:51;;;;;;;6.50;3.30;;;23.40;64.90;;;;;;4834632;29;20038;-73
2023/06/05 09:16:31;;;;;;;7.60;3.13;;;23.60;65.00;;;;;;4834534;29;20018;-74
2023/06/05 09:18:58;;;;;;;8.40;3.70;;;23.60;65.00;;;;;;4833939;29;20038;-76
2023/06/05 09:21:32;;;;;;;6.78;3.70;;;23.70;64.90;;;;;;4833465;29;20383;-74
2023/06/05 09:24:14;;;;;;;6.18;3.55;;;23.70;64.60;;;;;;4833121;29;20108;-75
2023/06/05 09:26:49;;;;;;;5.78;3.10;;;23.70;65.40;;;;;;4833671;29;20070;-74
2023/06/05 09:29:22;;;;;;;5.70;3.05;;;23.70;64.10;;;;;;4834313;29;20038;-73
2023/06/05 09:31:49;;;;;;;6.30;2.75;;;23.80;64.30;;;;;;4834182;29;20072;-72
2023/06/05 09:34:21;;;;;;;6.43;3.20;;;24.00;64.40;;;;;;4833857;29;20311;-74
2023/06/05 09:36:47;;;;;;;5.75;3.05;;;24.10;64.50;;;;;;4832398;29;20316;-75
2023/06/05 09:39:17;;;;;;;5.50;3.47;;;24.30;64.30;;;;;;4833929;29;20087;-74
2023/06/05 09:41:44;;;;;;;6.10;3.05;;;24.20;63.60;;;;;;4833438;29;20328;-74
2023/06/05 09:44:10;;;;;;;6.05;3.28;;;24.20;64.10;;;;;;4833843;29;20220;-74
2023/06/05 09:46:51;;;;;;;8.77;3.53;;;24.40;64.20;;;;;;4833209;29;20045;-75
2023/06/05 09:49:17;;;;;;;5.43;3.40;;;24.60;64.20;;;;;;4833760;29;20046;-76
2023/06/05 09:51:43;;;;;;;6.18;3.60;;;24.60;63.50;;;;;;4833486;29;20140;-75
2023/06/05 09:54:11;;;;;;;6.68;3.40;;;24.80;64.00;;;;;;4833815;29;20030;-75
2023/06/05 09:56:39;;;;;;;4.90;3.23;;;25.00;62.70;;;;;;4833307;29;20308;-71
2023/06/05 09:59:05;;;;;;;;;;;25.10;62.00;;;;;;4834335;29;20064;-74
2023/06/05 10:01:35;;;;;;;8.27;3.65;;;25.30;61.60;;;;;;4833151;29;19912;-72
2023/06/05 10:04:05;;;;;;;5.05;3.28;;;25.40;61.40;;;;;;4811411;29;20046;-74
2023/06/05 10:06:33;;;;;;;5.25;3.30;;;25.60;60.90;;;;;;4796568;29;20027;-74
2023/06/05 10:09:00;;;;;;;5.40;3.20;;;25.70;60.80;;;;;;4797456;29;20042;-75
2023/06/05 10:11:26;;;;;;;4.50;3.20;;;25.50;59.10;;;;;;4796537;29;20336;-75
2023/06/05 10:13:54;;;;;;;6.57;2.97;;;25.40;59.10;;;;;;4797578;29;20081;-75
2023/06/05 10:16:21;;;;;;;5.60;2.88;;;25.50;59.30;;;;;;4797493;29;20136;-74
2023/06/05 10:18:47;;;;;;;4.10;2.70;;;25.70;59.30;;;;;;4796954;29;20049;-74
2023/06/05 10:21:18;;;;;;;4.95;3.28;;;25.90;58.00;;;;;;4797289;29;20043;-73
2023/06/05 10:23:50;;;;;;;5.57;2.75;;;26.00;58.30;;;;;;4796805;30;20027;-73
2023/06/05 10:26:47;;;;;;;3.60;2.55;;;26.10;57.20;;;;;;4811317;29;20065;-73
2023/06/05 10:29:34;;;;;;;4.57;2.85;;;26.50;55.10;;;;;;4797060;29;20341;-72
2023/06/05 10:32:05;;;;;;;5.47;2.53;;;26.50;54.70;;;;;;4800476;30;20115;-74
2023/06/05 10:35:08;;;;;;;6.93;3.10;;;26.50;54.60;;;;;;4800330;29;20059;-74
2023/06/05 10:38:17;;;;;;;6.85;2.55;;;26.30;54.50;;;;;;4799917;29;20035;-72
2023/06/05 10:41:00;;;;;;;4.72;2.50;;;26.10;54.00;;;;;;4799930;30;20045;-71
2023/06/05 10:43:32;;;;;;;4.38;2.70;;;26.00;53.80;;;;;;4800725;29;20042;-73
2023/06/05 10:46:02;;;;;;;6.55;2.30;;;26.30;54.20;;;;;;4800654;29;20339;-72
2023/06/05 10:49:09;;;;;;;4.55;2.53;;;26.70;52.70;;;;;;4800187;29;20035;-72
2023/06/05 10:51:48;;;;;;;4.68;2.63;;;26.80;52.30;;;;;;4800061;29;20339;-72
2023/06/05 10:54:38;;;;;;;4.05;2.50;;;26.60;52.40;;;;;;4800590;29;20062;-74
2023/06/05 10:57:06;;;;;;;3.78;2.45;;;26.60;52.50;;;;;;4800260;29;20098;-73
2023/06/05 10:59:37;;;;;;;4.07;2.38;;;26.60;52.30;;;;;;4799918;29;20047;-75
2023/06/05 11:02:09;;;;;;;4.38;2.78;;;26.70;52.40;;;;;;4807592;29;20110;-73
2023/06/05 11:04:46;;;;;;;4.15;2.70;;;26.80;52.30;;;;;;4835589;29;20341;-73
2023/06/05 11:07:21;;;;;;;6.25;2.70;;;26.90;52.20;;;;;;4836508;29;20087;-71
2023/06/05 11:10:05;;;;;;;5.70;2.78;;;27.20;52.10;;;;;;4835700;29;20137;-73
2023/06/05 11:12:42;;;;;;;4.78;2.42;;;27.20;51.90;;;;;;4835746;29;20046;-73
2023/06/05 11:15:12;;;;;;;4.50;2.55;;;27.30;51.70;;;;;;4836294;29;20041;-74
2023/06/05 11:17:39;;;;;;;6.40;2.55;;;27.50;51.00;;;;;;4835680;29;20062;-73
2023/06/05 11:20:43;;;;;;;4.75;2.70;;;27.50;51.30;;;;;;4835919;29;20105;-75
2023/06/05 11:23:09;;;;;;;5.07;2.90;;;27.50;50.60;;;;;;4836009;29;20039;-71
2023/06/05 11:25:36;;;;;;;4.05;2.53;;;27.70;49.80;;;;;;4834541;29;20030;-73
2023/06/05 11:28:08;;;;;;;6.68;2.45;;;27.90;50.20;;;;;;4835856;29;20041;-74
2023/06/05 11:30:45;;;;;;;5.72;2.50;;;28.30;50.30;;;;;;4835223;29;20351;-73
2023/06/05 11:33:16;;;;;;;4.22;2.72;;;28.60;49.80;;;;;;4835701;29;20258;-73
2023/06/05 11:35:46;;;;;;;3.30;2.22;;;28.80;49.10;;;;;;4835175;29;20227;-72
2023/06/05 11:38:17;;;;;;;5.43;2.40;;;28.90;49.10;;;;;;4835951;29;20053;-73
2023/06/05 11:40:44;;;;;;;3.75;2.53;;;29.20;48.70;;;;;;4834886;29;20054;-75
2023/06/05 11:43:12;;;;;;;4.32;2.45;;;29.00;48.40;;;;;;4835304;29;20094;-73
2023/06/05 11:45:39;;;;;;;5.38;2.58;;;28.40;48.90;;;;;;4835268;29;20026;-74
2023/06/05 11:48:12;;;;;;;3.70;2.20;;;28.40;49.50;;;;;;4835549;29;20046;-72
2023/06/05 11:50:40;;;;;;;4.68;1.98;;;29.60;48.40;;;;;;4834944;29;20061;-74
2023/06/05 11:53:11;;;;;;;4.43;2.83;;;31.40;47.20;;;;;;4835737;29;20368;-74
2023/06/05 11:58:26;;;;;;;3.30;2.30;;;34.20;44.60;;;;;;4835557;29;20345;-75
2023/06/05 12:01:03;;;;;;;4.72;2.30;;;35.40;43.30;;;;;;4834642;29;20270;-74
2023/06/05 12:03:28;;;;;;;3.30;2.38;;;36.30;42.40;;;;;;4832155;29;20151;-73
2023/06/05 12:05:54;;;;;;;4.55;2.67;;;37.20;41.90;;;;;;4816917;29;20352;-75
2023/06/05 12:08:32;;;;;;;5.55;2.17;;;37.60;42.00;;;;;;4817423;29;20046;-73
2023/06/05 12:10:58;;;;;;;7.25;2.60;;;37.10;41.50;;;;;;4817269;29;20212;-74
2023/06/05 12:13:49;;;;;;;3.55;2.22;;;35.90;41.70;;;;;;4817492;29;20083;-74
2023/06/05 12:16:16;;;;;;;4.95;2.40;;;33.70;42.80;;;;;;4819532;29;20035;-72
2023/06/05 12:18:43;;;;;;;4.40;2.17;;;31.80;44.20;;;;;;4818674;29;20039;-74
2023/06/05 12:21:23;;;;;;;3.75;2.63;;;31.00;45.10;;;;;;4831209;29;20225;-73
2023/06/05 12:23:49;;;;;;;4.57;2.72;;;30.80;45.30;;;;;;4816427;29;20228;-75
2023/06/05 12:26:15;;;;;;;4.32;2.40;;;32.40;44.30;;;;;;4816884;29;20050;-73
2023/06/05 12:28:43;;;;;;;3.35;2.17;;;34.40;43.30;;;;;;4816304;29;20031;-74
2023/06/05 12:31:09;;;;;;;3.35;2.38;;;36.40;42.30;;;;;;4816863;29;20047;-73
2023/06/05 12:33:47;;;;;;;4.63;2.20;;;36.90;40.40;;;;;;4830463;29;20201;-73
2023/06/05 12:36:12;;;;;;;14.13;3.40;;;38.20;40.50;;;;;;4817050;29;20091;-74
2023/06/05 12:38:41;;;;;;;5.57;2.10;;;38.70;39.60;;;;;;4816563;29;20235;-72
2023/06/05 12:41:07;;;;;;;5.28;2.28;;;39.00;39.80;;;;;;4816716;29;20114;-72
2023/06/05 12:43:34;;;;;;;2.90;2.25;;;38.70;39.60;;;;;;4816638;29;20038;-73
2023/06/05 12:46:01;;;;;;;5.03;2.38;;;38.10;39.70;;;;;;4816809;29;20050;-73
2023/06/05 12:48:27;;;;;;;4.45;2.17;;;38.50;39.90;;;;;;4816702;29;20359;-74
2023/06/05 12:50:54;;;;;;;3.50;2.58;;;39.20;39.00;;;;;;4815797;29;20038;-73
2023/06/05 12:53:20;;;;;;;2.90;2.13;;;40.00;38.30;;;;;;4815757;29;20110;-74
2023/06/05 12:55:45;;;;;;;3.45;2.47;;;41.30;38.40;;;;;;4815731;29;20093;-74
2023/06/05 12:58:11;;;;;;;9.23;2.85;;;42.90;37.30;;;;;;4816141;29;20377;-75
2023/06/05 13:00:38;;;;;;;4.63;2.80;;;42.00;37.10;;;;;;4815759;29;20198;-74
2023/06/05 13:03:04;;;;;;;5.77;2.40;;;41.80;37.40;;;;;;4827191;29;20232;-73
2023/06/05 13:05:32;;;;;;;4.28;2.45;;;42.40;37.50;;;;;;4834596;29;20030;-74
2023/06/05 13:07:58;;;;;;;5.57;3.13;;;43.10;36.80;;;;;;4833985;29;20038;-72
2023/06/05 13:10:25;;;;;;;3.42;2.20;;;43.00;36.50;;;;;;4834335;29;20072;-73
2023/06/05 13:12:51;;;;;;;3.45;2.70;;;43.30;36.70;;;;;;4834354;29;20045;-73
2023/06/05 13:15:17;;;;;;;6.20;3.00;;;41.90;36.90;;;;;;4834629;29;20037;-73
2023/06/05 13:17:43;;;;;;;6.13;2.70;;;39.60;37.80;;;;;;4834428;29;20045;-74
2023/06/05 13:20:12;;;;;;;6.70;2.72;;;37.40;39.10;;;;;;4834095;29;20082;-72
2023/06/05 13:22:41;;;;;;;5.07;2.50;;;38.30;39.20;;;;;;4833652;29;20316;-74
2023/06/05 13:25:08;;;;;;;3.88;2.47;;;39.60;38.00;;;;;;4834175;29;20075;-74
2023/06/05 13:27:34;;;;;;;3.80;2.80;;;40.90;37.30;;;;;;4834133;29;20242;-76
2023/06/05 13:30:00;;;;;;;4.43;2.70;;;39.30;37.10;;;;;;4833737;29;20038;-74
2023/06/05 13:32:26;;;;;;;7.85;3.40;;;38.70;37.80;;;;;;4838518;29;20066;-72
2023/06/05 13:34:53;;;;;;;3.70;2.60;;;40.00;37.20;;;;;;4842322;29;20093;-71
2023/06/05 13:37:20;;;;;;;14.18;3.47;;;41.80;37.20;;;;;;4844665;29;20042;-71
2023/06/05 13:39:46;;;;;;;3.40;2.47;;;43.20;36.50;;;;;;4843120;29;20042;-73
2023/06/05 13:42:11;;;;;;;4.03;2.70;;;43.50;36.10;;;;;;4834372;29;20377;-72
2023/06/05 13:44:37;;;;;;;5.50;2.75;;;41.90;36.10;;;;;;4834013;29;20057;-71
2023/06/05 13:47:04;;;;;;;3.63;2.60;;;39.60;37.30;;;;;;4833874;29;20038;-75
2023/06/05 13:49:31;;;;;;;3.90;2.47;;;37.70;38.60;;;;;;4834232;29;20044;-74
2023/06/05 13:51:56;;;;;;;4.13;2.55;;;38.10;39.30;;;;;;4833270;29;20054;-75
2023/06/05 13:54:22;;;;;;;5.05;2.80;;;39.30;38.80;;;;;;4833786;29;20038;-74
2023/06/05 13:56:48;;;;;;;3.55;2.50;;;40.50;38.30;;;;;;4833440;29;20039;-75
2023/06/05 13:59:14;;;;;;;3.42;2.30;;;41.10;37.90;;;;;;4833981;29;20179;-74
2023/06/05 14:01:39;;;;;;;4.68;2.50;;;41.40;38.00;;;;;;4833143;29;20046;-74
2023/06/05 14:04:05;;;;;;;6.53;2.95;;;40.50;37.40;;;;;;4833622;29;20042;-73
2023/06/05 14:06:31;;;;;;;5.05;2.60;;;38.90;38.50;;;;;;4833534;29;20037;-72
2023/06/05 14:08:57;;;;;;;5.35;2.50;;;39.60;38.60;;;;;;4832962;29;20065;-74
2023/06/05 14:11:22;;;;;;;4.13;2.95;;;41.00;37.20;;;;;;4833724;29;20046;-74
2023/06/05 14:13:48;;;;;;;5.00;2.70;;;42.40;37.10;;;;;;4833193;29;20320;-72
2023/06/05 14:16:14;;;;;;;3.67;2.47;;;43.10;36.90;;;;;;4833715;29;20034;-74
2023/06/05 14:18:40;;;;;;;7.70;2.80;;;44.30;36.50;;;;;;4833560;29;20038;-74
2023/06/05 14:21:06;;;;;;;7.13;2.42;;;44.70;36.00;;;;;;4833507;29;20327;-74
2023/06/05 14:23:31;;;;;;;3.07;2.13;;;45.70;36.50;;;;;;4833769;29;20090;-75
2023/06/05 14:25:57;;;;;;;3.03;2.10;;;45.60;35.70;;;;;;4833139;29;20144;-73
2023/06/05 14:28:23;;;;;;;3.80;2.38;;;45.40;35.70;;;;;;4833523;29;20042;-74
2023/06/05 14:30:49;;;;;;;6.95;2.25;;;44.50;36.10;;;;;;4832658;29;20038;-75
2023/06/05 14:33:16;;;;;;;3.05;1.88;;;44.60;36.70;;;;;;4832409;29;20283;-74
2023/06/05 14:35:42;;;;;;;4.78;2.50;;;45.00;36.00;;;;;;4833121;29;20030;-73
2023/06/05 14:38:12;;;;;;;5.82;2.40;;;44.50;35.70;;;;;;4833311;29;20041;-74
2023/06/05 14:40:41;;;;;;;6.25;2.55;;;44.30;36.00;;;;;;4833482;29;20038;-73
2023/06/05 14:43:07;;;;;;;4.35;2.20;;;44.60;35.80;;;;;;4833202;29;20038;-74
2023/06/05 14:45:33;;;;;;;4.25;2.65;;;44.80;35.90;;;;;;4833509;29;20069;-74
2023/06/05 14:47:58;;;;;;;3.10;2.35;;;45.20;35.30;;;;;;4832669;29;20030;-73
2023/06/05 14:50:24;;;;;;;3.33;2.30;;;45.70;35.10;;;;;;4831971;29;20034;-74
2023/06/05 14:52:50;;;;;;;3.90;2.35;;;44.50;35.30;;;;;;4832837;29;20045;-74
2023/06/05 14:55:16;;;;;;;6.30;2.33;;;45.20;35.60;;;;;;4833121;29;20022;-75
2023/06/05 14:57:42;;;;;;;3.90;2.60;;;45.00;35.50;;;;;;4832931;29;20031;-74
2023/06/05 15:00:08;;;;;;;4.28;2.33;;;46.20;35.30;;;;;;4833148;29;20038;-74
2023/06/05 15:02:35;;;;;;;4.53;2.08;;;46.00;34.80;;;;;;4832676;29;20050;-74
2023/06/05 15:05:01;;;;;;;5.30;2.70;;;45.80;34.60;;;;;;4832610;29;20041;-73
2023/06/05 15:07:38;;;;;;;3.88;2.28;;;45.10;35.00;;;;;;4833289;29;20042;-71
2023/06/05 15:10:05;;;;;;;4.47;2.20;;;45.20;34.70;;;;;;4832211;29;20057;-72
2023/06/05 15:12:31;;;;;;;4.93;2.25;;;45.50;34.50;;;;;;4833256;29;20034;-75
2023/06/05 15:14:58;;;;;;;2.75;2.25;;;45.70;34.20;;;;;;4831230;29;20050;-74
2023/06/05 15:17:24;;;;;;;6.07;2.20;;;45.70;33.90;;;;;;4834688;29;20083;-72
2023/06/05 15:19:50;;;;;;;3.73;2.10;;;46.10;33.80;;;;;;4835455;29;20093;-72
2023/06/05 15:22:15;;;;;;;3.07;2.07;;;46.10;34.40;;;;;;4836157;29;20283;-73
2023/06/05 15:24:41;;;;;;;5.63;2.37;;;46.40;34.30;;;;;;4835923;29;20033;-74
2023/06/05 15:27:07;;;;;;;5.57;2.07;;;46.00;34.30;;;;;;4835260;29;20042;-73
2023/06/05 15:29:33;;;;;;;2.70;1.95;;;45.90;34.00;;;;;;4836073;29;20095;-73
2023/06/05 15:31:59;;;;;;;3.22;1.98;;;45.60;34.30;;;;;;4835475;29;20034;-74
2023/06/05 15:34:25;;;;;;;4.82;2.10;;;46.00;34.30;;;;;;4836015;29;20049;-74
2023/06/05 15:36:50;;;;;;;3.67;1.80;;;45.80;34.10;;;;;;4835118;29;20221;-75
2023/06/05 15:39:16;;;;;;;3.00;1.77;;;45.70;34.40;;;;;;4836022;29;20344;-73
2023/06/05 15:41:42;;;;;;;3.25;1.90;;;45.30;34.40;;;;;;4835715;29;20026;-74
2023/06/05 15:44:09;;;;;;;3.83;2.28;;;45.40;34.40;;;;;;4835426;29;20038;-75
2023/06/05 15:46:35;;;;;;;6.00;3.42;;;45.70;34.60;;;;;;4835405;29;20056;-74
2023/06/05 15:49:01;;;;;;;3.10;1.90;;;44.80;35.20;;;;;;4839006;29;20041;-74
2023/06/05 15:51:27;;;;;;;4.45;2.45;;;44.40;34.80;;;;;;4838847;29;20062;-72
2023/06/05 15:53:55;;;;;;;4.20;2.00;;;44.20;35.00;;;;;;4837099;29;20042;-72
2023/06/05 15:56:21;;;;;;;2.78;2.10;;;44.40;35.20;;;;;;4837580;29;20038;-74
2023/06/05 15:58:47;;;;;;;3.17;1.83;;;44.30;34.90;;;;;;4835012;29;20216;-76
2023/06/05 16:01:13;;;;;;;3.75;2.03;;;44.10;34.80;;;;;;4835210;29;20041;-73
2023/06/05 16:03:39;;;;;;;3.33;1.73;;;44.00;34.90;;;;;;4835055;29;20240;-74
2023/06/05 16:06:05;;;;;;;3.80;2.10;;;44.20;34.70;;;;;;4834852;29;20094;-74
2023/06/05 16:08:31;;;;;;;6.60;2.05;;;44.90;34.70;;;;;;4834131;29;20228;-74
2023/06/05 16:11:00;;;;;;;4.93;2.20;;;45.20;34.50;;;;;;4834559;29;20091;-75
2023/06/05 16:13:27;;;;;;;3.17;2.13;;;44.60;34.60;;;;;;4835422;29;20050;-73
2023/06/05 16:15:53;;;;;;;3.05;1.90;;;44.10;35.00;;;;;;4835025;29;20034;-73
2023/06/05 16:18:19;;;;;;;4.95;1.92;;;43.30;35.10;;;;;;4835391;29;20044;-73
2023/06/05 16:20:44;;;;;;;2.65;1.83;;;42.70;35.40;;;;;;4835150;29;20030;-73
2023/06/05 16:23:10;;;;;;;5.30;1.98;;;42.50;35.40;;;;;;4834799;29;20205;-74
2023/06/05 16:25:37;;;;;;;3.55;2.20;;;42.50;35.30;;;;;;4835201;29;20355;-74
2023/06/05 16:28:03;;;;;;;3.53;2.47;;;42.70;35.20;;;;;;4833458;29;20029;-73
2023/06/05 16:30:28;;;;;;;4.80;2.05;;;43.40;35.20;;;;;;4835111;29;20459;-75
2023/06/05 16:32:54;;;;;;;3.28;2.13;;;43.80;34.80;;;;;;4834387;29;20045;-75
2023/06/05 16:35:20;;;;;;;5.43;1.90;;;43.80;34.80;;;;;;4834812;29;20050;-75
2023/06/05 16:37:46;;;;;;;4.75;2.65;;;43.50;35.00;;;;;;4834857;29;20038;-74
2023/06/05 16:40:11;;;;;;;2.67;1.98;;;42.60;35.20;;;;;;4834392;29;20322;-74
2023/06/05 16:42:37;;;;;;;6.40;2.38;;;42.00;35.40;;;;;;4835116;29;20029;-75
2023/06/05 16:45:04;;;;;;;3.38;2.20;;;41.90;35.40;;;;;;4834415;29;20041;-74
2023/06/05 16:47:30;;;;;;;5.73;2.13;;;42.60;35.40;;;;;;4835066;29;20034;-75
2023/06/05 16:49:55;;;;;;;4.45;2.45;;;42.60;35.00;;;;;;4834312;29;20319;-74
2023/06/05 16:52:23;;;;;;;3.90;2.10;;;41.90;35.40;;;;;;4835028;29;20030;-75
2023/06/05 16:54:50;;;;;;;5.13;2.08;;;42.10;35.50;;;;;;4834594;29;20079;-73
2023/06/05 16:57:16;;;;;;;4.68;2.03;;;41.60;35.60;;;;;;4834469;29;20059;-74
2023/06/05 16:59:41;;;;;;;5.20;2.25;;;41.70;35.80;;;;;;4834895;29;20022;-72
2023/06/05 17:02:11;;;;;;;5.45;2.42;;;41.70;35.80;;;;;;4833468;29;20074;-73
2023/06/05 17:04:37;;;;;;;5.50;2.15;;;41.60;35.90;;;;;;4834299;29;20034;-73
2023/06/05 17:07:03;;;;;;;3.33;1.90;;;41.40;36.00;;;;;;4833691;29;20324;-73
2023/06/05 17:09:32;;;;;;;3.00;2.03;;;41.70;35.60;;;;;;4834445;29;20085;-74
2023/06/05 17:11:59;;;;;;;3.22;1.73;;;41.70;35.70;;;;;;4833964;29;20054;-74
2023/06/05 17:14:25;;;;;;;3.50;2.15;;;40.40;36.10;;;;;;4834506;29;20050;-74
2023/06/05 17:16:51;;;;;;;3.83;3.35;;;40.40;36.30;;;;;;4834202;29;20106;-75
2023/06/05 17:19:16;;;;;;;5.32;2.88;;;39.50;36.30;;;;;;4834229;29;20038;-73
2023/06/05 17:21:43;;;;;;;4.45;2.45;;;39.60;36.70;;;;;;4834034;29;20034;-73
2023/06/05 17:24:08;;;;;;;4.40;2.30;;;40.30;36.30;;;;;;4833828;29;20409;-75
2023/06/05 17:26:34;;;;;;;4.60;2.30;;;40.60;36.50;;;;;;4834160;29;20030;-74
2023/06/05 17:29:00;;;;;;;3.63;2.20;;;39.80;36.60;;;;;;4833505;29;20042;-73
2023/06/05 17:31:28;;;;;;;4.90;2.13;;;39.40;36.70;;;;;;4833796;29;20058;-73
2023/06/05 17:33:54;;;;;;;4.43;2.10;;;39.30;36.90;;;;;;4832454;29;20042;-74
2023/06/05 17:36:20;;;;;;;4.00;2.30;;;39.20;36.60;;;;;;4833969;29;20038;-74
2023/06/05 17:38:46;;;;;;;3.90;2.15;;;39.00;36.90;;;;;;4833725;29;20038;-74
2023/06/05 17:41:12;;;;;;;4.35;2.30;;;39.00;37.10;;;;;;4832062;29;20280;-75
2023/06/05 17:43:38;;;;;;;4.97;2.10;;;38.90;36.90;;;;;;4833795;29;20099;-74
2023/06/05 17:46:04;;;;;;;3.28;1.90;;;38.30;37.40;;;;;;4833087;29;20030;-73
2023/06/05 17:48:30;;;;;;;3.28;2.10;;;37.90;37.70;;;;;;4833676;29;20060;-73
2023/06/05 17:50:56;;;;;;;4.15;2.50;;;37.30;38.00;;;;;;4833046;29;20034;-73
2023/06/05 17:53:23;;;;;;;4.28;2.30;;;37.00;38.10;;;;;;4833709;29;20037;-75
2023/06/05 17:55:52;;;;;;;5.20;2.67;;;36.90;38.30;;;;;;4833637;29;20082;-75